Estación Meteorológica Peña el Pijo (Robertgarden) [ 02/03/23 03:49:27 CET ]

Fecha Hora Presion(HPa) Temp (°C) Humedad % Rocio (°C) Viento ( m/s) Direccion Lluvia 1Hora(mm) Lluvia 24H(mm) LLuvia Total(mm)
2012-Feb-21 01:01:18 1014.600 -3.8 72 -8.2         153.32
2012-Feb-21 02:03:10 1014.400 -4.1 72 -8.4         153.32
2012-Feb-21 03:01:19 1014.200 -4.4 73 -8.5         153.32
2012-Feb-21 04:01:11 1013.600 -4.3 73 -8.4         153.32
2012-Feb-21 05:01:14 1013.300 -4.6 73 -8.7         153.32
2012-Feb-21 06:01:12 1013.300 -5.0 73 -9.1         153.32
2012-Feb-21 07:01:14 1013.300 -5.2 73 -9.3         153.32
2012-Feb-21 08:01:12 1013.600 -4.9 71 -9.3         153.32
2012-Feb-21 09:01:14 1013.900 -3.9 75 -7.7         153.32
2012-Feb-21 10:01:15 1014.200 3.2 54 -5.3         153.32
2012-Feb-21 11:01:13 1014.300 8.1 38 -5.5         153.32
2012-Feb-21 12:01:13 1014.300 9.7 29 -7.6         153.32
2012-Feb-21 13:01:14 1014.100 11.8 22 -9.4         153.32
2012-Feb-21 14:01:20 1013.600 12.1 19 -11.1         153.32
2012-Feb-21 15:01:17 1013.200 12.1 19 -11.1         153.32
2012-Feb-21 16:01:13 1013.000 12.8 18 -11.3         153.32
2012-Feb-21 17:01:14 1013.100 12.5 19 -10.7         153.32
2012-Feb-21 18:01:13 1013.500 9.0 37 -5.0         153.32
2012-Feb-21 19:01:17 1014.300 6.2 54 -2.5         153.32
2012-Feb-21 20:01:14 1014.900 4.1 63 -2.4         153.32
2012-Feb-21 21:01:13 1015.200 1.4 66 -4.3         153.32
2012-Feb-21 22:01:17 1015.700 -0.6 69 -5.6         153.32
2012-Feb-21 23:01:13 1016.000 -1.8 74 -5.8         153.32

Temperatura Máxima:12°    Temperatura Mínima:-5°
Presión Máxima:1016.000 Hpa    Presión Mínima:1013.000 Hpa


Volver